sensor_id;sensor_type;location;lat;lon;timestamp;pressure;altitude;pressure_sealevel;temperature
7389;BMP180;3735;50.136;11.062;2023-09-30T00:00:59;98792.00;;;17.20
7389;BMP180;3735;50.136;11.062;2023-09-30T00:03:25;98795.00;;;17.00
7389;BMP180;3735;50.136;11.062;2023-09-30T00:05:50;98795.00;;;16.80
7389;BMP180;3735;50.136;11.062;2023-09-30T00:08:16;98801.00;;;16.70
7389;BMP180;3735;50.136;11.062;2023-09-30T00:10:42;98805.00;;;16.60
7389;BMP180;3735;50.136;11.062;2023-09-30T00:13:08;98806.00;;;16.60
7389;BMP180;3735;50.136;11.062;2023-09-30T00:15:34;98806.00;;;16.60
7389;BMP180;3735;50.136;11.062;2023-09-30T00:18:00;98787.00;;;16.60
7389;BMP180;3735;50.136;11.062;2023-09-30T00:20:28;98786.00;;;16.50
7389;BMP180;3735;50.136;11.062;2023-09-30T00:22:53;98788.00;;;16.60
7389;BMP180;3735;50.136;11.062;2023-09-30T00:25:19;98794.00;;;16.60
7389;BMP180;3735;50.136;11.062;2023-09-30T00:27:47;98797.00;;;16.60
7389;BMP180;3735;50.136;11.062;2023-09-30T00:30:13;98797.00;;;16.60
7389;BMP180;3735;50.136;11.062;2023-09-30T00:32:39;98796.00;;;16.60
7389;BMP180;3735;50.136;11.062;2023-09-30T00:35:06;98802.00;;;16.60
7389;BMP180;3735;50.136;11.062;2023-09-30T00:37:38;98808.00;;;16.60
7389;BMP180;3735;50.136;11.062;2023-09-30T00:40:05;98807.00;;;16.60
7389;BMP180;3735;50.136;11.062;2023-09-30T00:42:31;98798.00;;;16.60
7389;BMP180;3735;50.136;11.062;2023-09-30T00:44:56;98805.00;;;16.60
7389;BMP180;3735;50.136;11.062;2023-09-30T00:47:23;98805.00;;;16.60
7389;BMP180;3735;50.136;11.062;2023-09-30T00:49:50;98808.00;;;16.60
7389;BMP180;3735;50.136;11.062;2023-09-30T00:52:18;98808.00;;;16.60
7389;BMP180;3735;50.136;11.062;2023-09-30T00:54:44;98806.00;;;16.60
7389;BMP180;3735;50.136;11.062;2023-09-30T00:57:13;98811.00;;;16.60
7389;BMP180;3735;50.136;11.062;2023-09-30T00:59:40;98826.00;;;16.60
7389;BMP180;3735;50.136;11.062;2023-09-30T01:02:06;98832.00;;;16.40
7389;BMP180;3735;50.136;11.062;2023-09-30T01:04:32;98829.00;;;16.30
7389;BMP180;3735;50.136;11.062;2023-09-30T01:06:57;98830.00;;;16.20
7389;BMP180;3735;50.136;11.062;2023-09-30T01:09:23;98827.00;;;16.10
7389;BMP180;3735;50.136;11.062;2023-09-30T01:11:50;98833.00;;;16.00
7389;BMP180;3735;50.136;11.062;2023-09-30T01:14:30;98828.00;;;15.90
7389;BMP180;3735;50.136;11.062;2023-09-30T01:16:57;98835.00;;;15.80
7389;BMP180;3735;50.136;11.062;2023-09-30T01:19:24;98830.00;;;15.80
7389;BMP180;3735;50.136;11.062;2023-09-30T01:21:57;98828.00;;;15.60
7389;BMP180;3735;50.136;11.062;2023-09-30T01:24:28;98819.00;;;15.60
7389;BMP180;3735;50.136;11.062;2023-09-30T01:26:54;98826.00;;;15.50
7389;BMP180;3735;50.136;11.062;2023-09-30T01:29:20;98830.00;;;15.50
7389;BMP180;3735;50.136;11.062;2023-09-30T01:31:46;98834.00;;;15.40
7389;BMP180;3735;50.136;11.062;2023-09-30T01:34:16;98835.00;;;15.40
7389;BMP180;3735;50.136;11.062;2023-09-30T01:36:43;98838.00;;;15.40
7389;BMP180;3735;50.136;11.062;2023-09-30T01:39:12;98835.00;;;15.40
7389;BMP180;3735;50.136;11.062;2023-09-30T01:41:40;98846.00;;;15.30
7389;BMP180;3735;50.136;11.062;2023-09-30T01:44:07;98843.00;;;15.30
7389;BMP180;3735;50.136;11.062;2023-09-30T01:46:33;98853.00;;;15.30
7389;BMP180;3735;50.136;11.062;2023-09-30T01:48:59;98853.00;;;15.30
7389;BMP180;3735;50.136;11.062;2023-09-30T01:51:25;98858.00;;;15.30
7389;BMP180;3735;50.136;11.062;2023-09-30T01:53:50;98853.00;;;15.30
7389;BMP180;3735;50.136;11.062;2023-09-30T01:56:16;98861.00;;;15.30
7389;BMP180;3735;50.136;11.062;2023-09-30T01:58:42;98866.00;;;15.30
7389;BMP180;3735;50.136;11.062;2023-09-30T02:01:08;98862.00;;;15.30
7389;BMP180;3735;50.136;11.062;2023-09-30T02:03:34;98859.00;;;15.30
7389;BMP180;3735;50.136;11.062;2023-09-30T02:06:00;98869.00;;;15.30
7389;BMP180;3735;50.136;11.062;2023-09-30T02:08:26;98879.00;;;15.40
7389;BMP180;3735;50.136;11.062;2023-09-30T02:10:51;98882.00;;;15.30
7389;BMP180;3735;50.136;11.062;2023-09-30T02:13:18;98883.00;;;15.20
7389;BMP180;3735;50.136;11.062;2023-09-30T02:15:43;98876.00;;;15.00
7389;BMP180;3735;50.136;11.062;2023-09-30T02:18:10;98889.00;;;14.90
7389;BMP180;3735;50.136;11.062;2023-09-30T02:20:36;98889.00;;;14.80
7389;BMP180;3735;50.136;11.062;2023-09-30T02:23:10;98900.00;;;14.80
7389;BMP180;3735;50.136;11.062;2023-09-30T02:25:37;98898.00;;;14.80
7389;BMP180;3735;50.136;11.062;2023-09-30T02:28:03;98898.00;;;14.80
7389;BMP180;3735;50.136;11.062;2023-09-30T02:30:30;98904.00;;;14.70
7389;BMP180;3735;50.136;11.062;2023-09-30T02:32:56;98908.00;;;14.70
7389;BMP180;3735;50.136;11.062;2023-09-30T02:35:22;98908.00;;;14.70
7389;BMP180;3735;50.136;11.062;2023-09-30T02:37:48;98914.00;;;14.70
7389;BMP180;3735;50.136;11.062;2023-09-30T02:40:16;98914.00;;;14.70
7389;BMP180;3735;50.136;11.062;2023-09-30T02:42:43;98921.00;;;14.70
7389;BMP180;3735;50.136;11.062;2023-09-30T02:45:11;98919.00;;;14.70
7389;BMP180;3735;50.136;11.062;2023-09-30T02:47:38;98911.00;;;14.70
7389;BMP180;3735;50.136;11.062;2023-09-30T02:50:09;98909.00;;;14.60
7389;BMP180;3735;50.136;11.062;2023-09-30T02:52:38;98898.00;;;14.70
7389;BMP180;3735;50.136;11.062;2023-09-30T02:55:09;98911.00;;;14.60
7389;BMP180;3735;50.136;11.062;2023-09-30T02:57:35;98918.00;;;14.60
7389;BMP180;3735;50.136;11.062;2023-09-30T03:00:03;98899.00;;;14.50
7389;BMP180;3735;50.136;11.062;2023-09-30T03:02:53;98906.00;;;14.60
7389;BMP180;3735;50.136;11.062;2023-09-30T03:05:20;98906.00;;;14.50
7389;BMP180;3735;50.136;11.062;2023-09-30T03:07:47;98902.00;;;14.50
7389;BMP180;3735;50.136;11.062;2023-09-30T03:10:13;98908.00;;;14.60
7389;BMP180;3735;50.136;11.062;2023-09-30T03:12:48;98917.00;;;14.60
7389;BMP180;3735;50.136;11.062;2023-09-30T03:15:15;98925.00;;;14.60
7389;BMP180;3735;50.136;11.062;2023-09-30T03:17:42;98914.00;;;14.50
7389;BMP180;3735;50.136;11.062;2023-09-30T03:20:09;98914.00;;;14.60
7389;BMP180;3735;50.136;11.062;2023-09-30T03:22:43;98927.00;;;14.60
7389;BMP180;3735;50.136;11.062;2023-09-30T03:25:10;98942.00;;;14.60
7389;BMP180;3735;50.136;11.062;2023-09-30T03:27:37;98950.00;;;14.50
7389;BMP180;3735;50.136;11.062;2023-09-30T03:30:05;98955.00;;;14.50
7389;BMP180;3735;50.136;11.062;2023-09-30T03:32:31;98957.00;;;14.50
7389;BMP180;3735;50.136;11.062;2023-09-30T03:35:00;98895.00;;;14.40
7389;BMP180;3735;50.136;11.062;2023-09-30T03:37:27;98944.00;;;14.50
7389;BMP180;3735;50.136;11.062;2023-09-30T03:39:56;98941.00;;;14.40
7389;BMP180;3735;50.136;11.062;2023-09-30T03:42:22;98958.00;;;14.50
7389;BMP180;3735;50.136;11.062;2023-09-30T03:44:48;98955.00;;;14.50
7389;BMP180;3735;50.136;11.062;2023-09-30T03:47:15;98956.00;;;14.50
7389;BMP180;3735;50.136;11.062;2023-09-30T03:49:43;98937.00;;;14.40
7389;BMP180;3735;50.136;11.062;2023-09-30T03:52:12;98936.00;;;14.40
7389;BMP180;3735;50.136;11.062;2023-09-30T03:54:39;98939.00;;;14.40
7389;BMP180;3735;50.136;11.062;2023-09-30T03:57:07;98928.00;;;14.50
7389;BMP180;3735;50.136;11.062;2023-09-30T03:59:32;98928.00;;;14.50
7389;BMP180;3735;50.136;11.062;2023-09-30T04:01:59;98945.00;;;14.40
7389;BMP180;3735;50.136;11.062;2023-09-30T04:04:25;98952.00;;;14.40
7389;BMP180;3735;50.136;11.062;2023-09-30T04:06:51;98963.00;;;14.30
7389;BMP180;3735;50.136;11.062;2023-09-30T04:09:18;98973.00;;;14.30
7389;BMP180;3735;50.136;11.062;2023-09-30T04:11:43;98971.00;;;14.30
7389;BMP180;3735;50.136;11.062;2023-09-30T04:14:09;98968.00;;;14.40
7389;BMP180;3735;50.136;11.062;2023-09-30T04:16:36;98968.00;;;14.30
7389;BMP180;3735;50.136;11.062;2023-09-30T04:19:03;98960.00;;;14.40
7389;BMP180;3735;50.136;11.062;2023-09-30T04:21:30;98956.00;;;14.40
7389;BMP180;3735;50.136;11.062;2023-09-30T04:24:00;98971.00;;;14.40
7389;BMP180;3735;50.136;11.062;2023-09-30T04:26:25;98976.00;;;14.40
7389;BMP180;3735;50.136;11.062;2023-09-30T04:28:52;98967.00;;;14.40
7389;BMP180;3735;50.136;11.062;2023-09-30T04:31:19;98967.00;;;14.40
7389;BMP180;3735;50.136;11.062;2023-09-30T04:33:48;98957.00;;;14.40
7389;BMP180;3735;50.136;11.062;2023-09-30T04:36:13;98966.00;;;14.40
7389;BMP180;3735;50.136;11.062;2023-09-30T04:38:39;98959.00;;;14.30
7389;BMP180;3735;50.136;11.062;2023-09-30T04:41:05;98965.00;;;14.30
7389;BMP180;3735;50.136;11.062;2023-09-30T04:43:33;98966.00;;;14.30
7389;BMP180;3735;50.136;11.062;2023-09-30T04:46:00;98962.00;;;14.30
7389;BMP180;3735;50.136;11.062;2023-09-30T04:48:29;98972.00;;;14.00
7389;BMP180;3735;50.136;11.062;2023-09-30T04:50:55;98983.00;;;14.30
7389;BMP180;3735;50.136;11.062;2023-09-30T04:53:21;98983.00;;;14.30
7389;BMP180;3735;50.136;11.062;2023-09-30T04:55:49;98991.00;;;14.30
7389;BMP180;3735;50.136;11.062;2023-09-30T04:58:17;98986.00;;;14.30
7389;BMP180;3735;50.136;11.062;2023-09-30T05:00:43;98990.00;;;14.30
7389;BMP180;3735;50.136;11.062;2023-09-30T05:03:09;98988.00;;;14.30
7389;BMP180;3735;50.136;11.062;2023-09-30T05:05:34;98992.00;;;14.30
7389;BMP180;3735;50.136;11.062;2023-09-30T05:08:01;98977.00;;;14.30
7389;BMP180;3735;50.136;11.062;2023-09-30T05:10:27;98982.00;;;14.30
7389;BMP180;3735;50.136;11.062;2023-09-30T05:12:52;98979.00;;;14.30
7389;BMP180;3735;50.136;11.062;2023-09-30T05:15:20;98980.00;;;14.30
7389;BMP180;3735;50.136;11.062;2023-09-30T05:17:48;98989.00;;;14.30
7389;BMP180;3735;50.136;11.062;2023-09-30T05:20:15;98992.00;;;14.30
7389;BMP180;3735;50.136;11.062;2023-09-30T05:22:46;98993.00;;;14.30
7389;BMP180;3735;50.136;11.062;2023-09-30T05:25:16;99004.00;;;14.30
7389;BMP180;3735;50.136;11.062;2023-09-30T05:27:42;99013.00;;;14.30
7389;BMP180;3735;50.136;11.062;2023-09-30T05:30:09;99015.00;;;14.40
7389;BMP180;3735;50.136;11.062;2023-09-30T05:32:37;99022.00;;;14.40
7389;BMP180;3735;50.136;11.062;2023-09-30T05:35:07;99019.00;;;14.50
7389;BMP180;3735;50.136;11.062;2023-09-30T05:37:42;99026.00;;;14.50
7389;BMP180;3735;50.136;11.062;2023-09-30T05:40:09;99038.00;;;14.50
7389;BMP180;3735;50.136;11.062;2023-09-30T05:42:48;99039.00;;;14.50
7389;BMP180;3735;50.136;11.062;2023-09-30T05:45:15;99024.00;;;14.60
7389;BMP180;3735;50.136;11.062;2023-09-30T05:47:41;99030.00;;;14.60
7389;BMP180;3735;50.136;11.062;2023-09-30T05:50:08;99039.00;;;14.60
7389;BMP180;3735;50.136;11.062;2023-09-30T05:52:43;99049.00;;;14.60
7389;BMP180;3735;50.136;11.062;2023-09-30T05:55:10;99029.00;;;14.60
7389;BMP180;3735;50.136;11.062;2023-09-30T05:57:38;99050.00;;;14.60
7389;BMP180;3735;50.136;11.062;2023-09-30T06:00:05;99058.00;;;14.60
7389;BMP180;3735;50.136;11.062;2023-09-30T06:02:51;99058.00;;;14.60
7389;BMP180;3735;50.136;11.062;2023-09-30T06:05:18;99063.00;;;14.60
7389;BMP180;3735;50.136;11.062;2023-09-30T06:07:51;99065.00;;;14.60
7389;BMP180;3735;50.136;11.062;2023-09-30T06:10:17;99066.00;;;14.60
7389;BMP180;3735;50.136;11.062;2023-09-30T06:12:48;99064.00;;;14.60
7389;BMP180;3735;50.136;11.062;2023-09-30T06:15:17;99060.00;;;14.70
7389;BMP180;3735;50.136;11.062;2023-09-30T06:17:50;99058.00;;;14.70
7389;BMP180;3735;50.136;11.062;2023-09-30T06:20:20;99065.00;;;14.70
7389;BMP180;3735;50.136;11.062;2023-09-30T06:22:49;99070.00;;;14.70
7389;BMP180;3735;50.136;11.062;2023-09-30T06:25:16;99065.00;;;14.80
7389;BMP180;3735;50.136;11.062;2023-09-30T06:27:46;99072.00;;;14.80
7389;BMP180;3735;50.136;11.062;2023-09-30T06:30:14;99083.00;;;14.90
7389;BMP180;3735;50.136;11.062;2023-09-30T06:32:42;99088.00;;;15.00
7389;BMP180;3735;50.136;11.062;2023-09-30T06:35:09;99088.00;;;15.00
7389;BMP180;3735;50.136;11.062;2023-09-30T06:37:41;99080.00;;;15.10
7389;BMP180;3735;50.136;11.062;2023-09-30T06:40:10;99089.00;;;15.10
7389;BMP180;3735;50.136;11.062;2023-09-30T06:42:38;99083.00;;;15.10
7389;BMP180;3735;50.136;11.062;2023-09-30T06:45:07;99096.00;;;15.20
7389;BMP180;3735;50.136;11.062;2023-09-30T06:47:34;99089.00;;;15.20
7389;BMP180;3735;50.136;11.062;2023-09-30T06:50:11;99104.00;;;15.30
7389;BMP180;3735;50.136;11.062;2023-09-30T06:52:40;99102.00;;;15.40
7389;BMP180;3735;50.136;11.062;2023-09-30T06:55:07;99105.00;;;15.50
7389;BMP180;3735;50.136;11.062;2023-09-30T06:57:37;99096.00;;;15.70
7389;BMP180;3735;50.136;11.062;2023-09-30T07:00:12;99098.00;;;15.80
7389;BMP180;3735;50.136;11.062;2023-09-30T07:02:40;99101.00;;;16.10
7389;BMP180;3735;50.136;11.062;2023-09-30T07:05:11;99113.00;;;16.20
7389;BMP180;3735;50.136;11.062;2023-09-30T07:07:38;99109.00;;;16.20
7389;BMP180;3735;50.136;11.062;2023-09-30T07:10:06;99121.00;;;16.20
7389;BMP180;3735;50.136;11.062;2023-09-30T07:12:32;99118.00;;;16.20
7389;BMP180;3735;50.136;11.062;2023-09-30T07:15:02;99125.00;;;16.30
7389;BMP180;3735;50.136;11.062;2023-09-30T07:17:28;99119.00;;;16.40
7389;BMP180;3735;50.136;11.062;2023-09-30T07:19:54;99124.00;;;16.40
7389;BMP180;3735;50.136;11.062;2023-09-30T07:22:23;99133.00;;;16.60
7389;BMP180;3735;50.136;11.062;2023-09-30T07:24:49;99127.00;;;16.90
7389;BMP180;3735;50.136;11.062;2023-09-30T07:27:14;99126.00;;;17.30
7389;BMP180;3735;50.136;11.062;2023-09-30T07:29:40;99134.00;;;17.40
7389;BMP180;3735;50.136;11.062;2023-09-30T07:32:07;99125.00;;;17.40
7389;BMP180;3735;50.136;11.062;2023-09-30T07:34:35;99123.00;;;17.20
7389;BMP180;3735;50.136;11.062;2023-09-30T07:37:01;99130.00;;;17.10
7389;BMP180;3735;50.136;11.062;2023-09-30T07:39:26;99132.00;;;17.20
7389;BMP180;3735;50.136;11.062;2023-09-30T07:41:52;99119.00;;;17.80
7389;BMP180;3735;50.136;11.062;2023-09-30T07:44:18;99126.00;;;18.70
7389;BMP180;3735;50.136;11.062;2023-09-30T07:46:43;99120.00;;;20.10
7389;BMP180;3735;50.136;11.062;2023-09-30T07:49:10;99121.00;;;21.50
7389;BMP180;3735;50.136;11.062;2023-09-30T07:51:36;99108.00;;;21.60
7389;BMP180;3735;50.136;11.062;2023-09-30T07:54:03;99113.00;;;22.00
7389;BMP180;3735;50.136;11.062;2023-09-30T07:56:29;99112.00;;;23.00
7389;BMP180;3735;50.136;11.062;2023-09-30T07:58:55;99115.00;;;23.70
7389;BMP180;3735;50.136;11.062;2023-09-30T08:01:20;99116.00;;;24.30
7389;BMP180;3735;50.136;11.062;2023-09-30T08:03:47;99118.00;;;23.90
7389;BMP180;3735;50.136;11.062;2023-09-30T08:06:13;99126.00;;;24.20
7389;BMP180;3735;50.136;11.062;2023-09-30T08:08:39;99124.00;;;24.90
7389;BMP180;3735;50.136;11.062;2023-09-30T08:11:06;99127.00;;;25.80
7389;BMP180;3735;50.136;11.062;2023-09-30T08:13:33;99122.00;;;26.10
7389;BMP180;3735;50.136;11.062;2023-09-30T08:15:59;99119.00;;;26.10
7389;BMP180;3735;50.136;11.062;2023-09-30T08:18:25;99131.00;;;26.70
7389;BMP180;3735;50.136;11.062;2023-09-30T08:20:51;99135.00;;;27.20
7389;BMP180;3735;50.136;11.062;2023-09-30T08:23:16;99134.00;;;26.90
7389;BMP180;3735;50.136;11.062;2023-09-30T08:25:42;99138.00;;;26.80
7389;BMP180;3735;50.136;11.062;2023-09-30T08:28:09;99139.00;;;27.50
7389;BMP180;3735;50.136;11.062;2023-09-30T08:30:38;99141.00;;;27.00
7389;BMP180;3735;50.136;11.062;2023-09-30T08:33:04;99131.00;;;27.60
7389;BMP180;3735;50.136;11.062;2023-09-30T08:35:37;99144.00;;;28.00
7389;BMP180;3735;50.136;11.062;2023-09-30T08:38:06;99147.00;;;28.00
7389;BMP180;3735;50.136;11.062;2023-09-30T08:40:32;99147.00;;;26.80
7389;BMP180;3735;50.136;11.062;2023-09-30T08:42:58;99150.00;;;25.40
7389;BMP180;3735;50.136;11.062;2023-09-30T08:45:28;99152.00;;;25.50
7389;BMP180;3735;50.136;11.062;2023-09-30T08:47:54;99144.00;;;26.20
7389;BMP180;3735;50.136;11.062;2023-09-30T08:50:21;99162.00;;;26.60
7389;BMP180;3735;50.136;11.062;2023-09-30T08:52:48;99173.00;;;25.60
7389;BMP180;3735;50.136;11.062;2023-09-30T08:55:14;99164.00;;;26.10
7389;BMP180;3735;50.136;11.062;2023-09-30T08:57:43;99147.00;;;26.20
7389;BMP180;3735;50.136;11.062;2023-09-30T09:00:11;99147.00;;;26.70
7389;BMP180;3735;50.136;11.062;2023-09-30T09:02:38;99153.00;;;25.70
7389;BMP180;3735;50.136;11.062;2023-09-30T09:05:05;99152.00;;;24.60
7389;BMP180;3735;50.136;11.062;2023-09-30T09:07:32;99154.00;;;23.10
7389;BMP180;3735;50.136;11.062;2023-09-30T09:12:38;99166.00;;;22.70
7389;BMP180;3735;50.136;11.062;2023-09-30T09:15:20;99163.00;;;23.80
7389;BMP180;3735;50.136;11.062;2023-09-30T09:17:47;99165.00;;;24.50
7389;BMP180;3735;50.136;11.062;2023-09-30T09:20:21;99165.00;;;24.20
7389;BMP180;3735;50.136;11.062;2023-09-30T09:22:50;99173.00;;;23.50
7389;BMP180;3735;50.136;11.062;2023-09-30T09:25:19;99173.00;;;24.40
7389;BMP180;3735;50.136;11.062;2023-09-30T09:27:49;99184.00;;;24.20
7389;BMP180;3735;50.136;11.062;2023-09-30T09:33:02;99206.00;;;22.10
7389;BMP180;3735;50.136;11.062;2023-09-30T09:35:32;99196.00;;;22.10
7389;BMP180;3735;50.136;11.062;2023-09-30T09:38:07;99198.00;;;22.50
7389;BMP180;3735;50.136;11.062;2023-09-30T09:40:37;99196.00;;;21.90
7389;BMP180;3735;50.136;11.062;2023-09-30T09:43:06;99190.00;;;23.60
7389;BMP180;3735;50.136;11.062;2023-09-30T09:45:36;99194.00;;;25.00
7389;BMP180;3735;50.136;11.062;2023-09-30T09:48:06;99191.00;;;26.50
7389;BMP180;3735;50.136;11.062;2023-09-30T09:50:33;99194.00;;;27.20
7389;BMP180;3735;50.136;11.062;2023-09-30T09:53:04;99182.00;;;27.40
7389;BMP180;3735;50.136;11.062;2023-09-30T09:55:30;99177.00;;;28.20
7389;BMP180;3735;50.136;11.062;2023-09-30T09:57:58;99174.00;;;28.30
7389;BMP180;3735;50.136;11.062;2023-09-30T10:00:26;99180.00;;;28.60
7389;BMP180;3735;50.136;11.062;2023-09-30T10:02:52;99176.00;;;28.90
7389;BMP180;3735;50.136;11.062;2023-09-30T10:05:20;99174.00;;;29.00
7389;BMP180;3735;50.136;11.062;2023-09-30T10:10:24;99178.00;;;29.10
7389;BMP180;3735;50.136;11.062;2023-09-30T10:12:50;99178.00;;;29.10
7389;BMP180;3735;50.136;11.062;2023-09-30T10:18:02;99190.00;;;27.70
7389;BMP180;3735;50.136;11.062;2023-09-30T10:20:37;99183.00;;;26.80
7389;BMP180;3735;50.136;11.062;2023-09-30T10:23:20;99183.00;;;28.00
7389;BMP180;3735;50.136;11.062;2023-09-30T10:26:12;99191.00;;;28.60
7389;BMP180;3735;50.136;11.062;2023-09-30T10:28:41;99187.00;;;28.90
7389;BMP180;3735;50.136;11.062;2023-09-30T10:31:16;99188.00;;;29.40
7389;BMP180;3735;50.136;11.062;2023-09-30T10:36:33;99196.00;;;29.90
7389;BMP180;3735;50.136;11.062;2023-09-30T10:39:00;99194.00;;;28.60
7389;BMP180;3735;50.136;11.062;2023-09-30T10:46:53;99175.00;;;27.90
7389;BMP180;3735;50.136;11.062;2023-09-30T10:51:55;99165.00;;;29.70
7389;BMP180;3735;50.136;11.062;2023-09-30T10:54:30;99168.00;;;29.80
7389;BMP180;3735;50.136;11.062;2023-09-30T10:56:58;99163.00;;;30.20
7389;BMP180;3735;50.136;11.062;2023-09-30T10:59:29;99165.00;;;30.00
7389;BMP180;3735;50.136;11.062;2023-09-30T11:02:01;99159.00;;;30.20
7389;BMP180;3735;50.136;11.062;2023-09-30T11:04:26;99163.00;;;29.70
7389;BMP180;3735;50.136;11.062;2023-09-30T11:06:55;99165.00;;;28.50
7389;BMP180;3735;50.136;11.062;2023-09-30T11:09:22;99167.00;;;28.20
7389;BMP180;3735;50.136;11.062;2023-09-30T11:11:53;99174.00;;;28.40
7389;BMP180;3735;50.136;11.062;2023-09-30T11:14:29;99168.00;;;28.70
7389;BMP180;3735;50.136;11.062;2023-09-30T11:17:02;99173.00;;;28.10
7389;BMP180;3735;50.136;11.062;2023-09-30T11:19:48;99169.00;;;28.20
7389;BMP180;3735;50.136;11.062;2023-09-30T11:22:15;99165.00;;;28.30
7389;BMP180;3735;50.136;11.062;2023-09-30T11:24:41;99162.00;;;29.30
7389;BMP180;3735;50.136;11.062;2023-09-30T11:27:07;99160.00;;;29.20
7389;BMP180;3735;50.136;11.062;2023-09-30T11:29:34;99158.00;;;28.60
7389;BMP180;3735;50.136;11.062;2023-09-30T11:32:00;99154.00;;;28.30
7389;BMP180;3735;50.136;11.062;2023-09-30T11:34:35;99152.00;;;27.90
7389;BMP180;3735;50.136;11.062;2023-09-30T11:37:04;99154.00;;;28.90
7389;BMP180;3735;50.136;11.062;2023-09-30T11:39:31;99144.00;;;28.30
7389;BMP180;3735;50.136;11.062;2023-09-30T11:41:57;99141.00;;;29.30
7389;BMP180;3735;50.136;11.062;2023-09-30T11:44:24;99147.00;;;28.20
7389;BMP180;3735;50.136;11.062;2023-09-30T11:46:56;99142.00;;;27.60
7389;BMP180;3735;50.136;11.062;2023-09-30T11:49:38;99144.00;;;27.10
7389;BMP180;3735;50.136;11.062;2023-09-30T11:52:08;99137.00;;;28.30
7389;BMP180;3735;50.136;11.062;2023-09-30T11:54:42;99143.00;;;28.50
7389;BMP180;3735;50.136;11.062;2023-09-30T11:57:14;99138.00;;;29.40
7389;BMP180;3735;50.136;11.062;2023-09-30T11:59:42;99140.00;;;30.00
7389;BMP180;3735;50.136;11.062;2023-09-30T12:02:13;99141.00;;;29.70
7389;BMP180;3735;50.136;11.062;2023-09-30T12:04:42;99153.00;;;29.80
7389;BMP180;3735;50.136;11.062;2023-09-30T12:07:08;99149.00;;;30.40
7389;BMP180;3735;50.136;11.062;2023-09-30T12:09:34;99141.00;;;29.60
7389;BMP180;3735;50.136;11.062;2023-09-30T12:12:03;99136.00;;;30.00
7389;BMP180;3735;50.136;11.062;2023-09-30T12:14:30;99126.00;;;29.50
7389;BMP180;3735;50.136;11.062;2023-09-30T12:16:58;99124.00;;;29.80
7389;BMP180;3735;50.136;11.062;2023-09-30T12:19:24;99127.00;;;30.00
7389;BMP180;3735;50.136;11.062;2023-09-30T12:21:52;99114.00;;;30.30
7389;BMP180;3735;50.136;11.062;2023-09-30T12:24:18;99114.00;;;30.00
7389;BMP180;3735;50.136;11.062;2023-09-30T12:27:10;99128.00;;;29.80
7389;BMP180;3735;50.136;11.062;2023-09-30T12:29:36;99122.00;;;29.70
7389;BMP180;3735;50.136;11.062;2023-09-30T12:32:04;99121.00;;;29.40
7389;BMP180;3735;50.136;11.062;2023-09-30T12:34:30;99122.00;;;30.20
7389;BMP180;3735;50.136;11.062;2023-09-30T12:36:58;99125.00;;;29.90
7389;BMP180;3735;50.136;11.062;2023-09-30T12:39:25;99121.00;;;30.10
7389;BMP180;3735;50.136;11.062;2023-09-30T12:41:51;99113.00;;;30.20
7389;BMP180;3735;50.136;11.062;2023-09-30T12:44:17;99116.00;;;30.30
7389;BMP180;3735;50.136;11.062;2023-09-30T12:46:43;99118.00;;;30.90
7389;BMP180;3735;50.136;11.062;2023-09-30T12:49:09;99124.00;;;30.10
7389;BMP180;3735;50.136;11.062;2023-09-30T12:51:36;99125.00;;;30.10
7389;BMP180;3735;50.136;11.062;2023-09-30T12:54:04;99120.00;;;29.60
7389;BMP180;3735;50.136;11.062;2023-09-30T12:56:30;99130.00;;;30.00
7389;BMP180;3735;50.136;11.062;2023-09-30T12:58:57;99128.00;;;30.00
7389;BMP180;3735;50.136;11.062;2023-09-30T13:01:23;99125.00;;;29.80
7389;BMP180;3735;50.136;11.062;2023-09-30T13:03:49;99129.00;;;29.90
7389;BMP180;3735;50.136;11.062;2023-09-30T13:06:16;99118.00;;;29.60
7389;BMP180;3735;50.136;11.062;2023-09-30T13:08:42;99111.00;;;30.00
7389;BMP180;3735;50.136;11.062;2023-09-30T13:11:12;99113.00;;;29.40
7389;BMP180;3735;50.136;11.062;2023-09-30T13:13:38;99113.00;;;29.20
7389;BMP180;3735;50.136;11.062;2023-09-30T13:16:05;99090.00;;;28.80
7389;BMP180;3735;50.136;11.062;2023-09-30T13:18:33;99102.00;;;29.40
7389;BMP180;3735;50.136;11.062;2023-09-30T13:20:59;99103.00;;;30.20
7389;BMP180;3735;50.136;11.062;2023-09-30T13:23:25;99113.00;;;30.00
7389;BMP180;3735;50.136;11.062;2023-09-30T13:25:53;99106.00;;;30.00
7389;BMP180;3735;50.136;11.062;2023-09-30T13:28:18;99105.00;;;30.20
7389;BMP180;3735;50.136;11.062;2023-09-30T13:30:44;99103.00;;;29.70
7389;BMP180;3735;50.136;11.062;2023-09-30T13:33:11;99107.00;;;30.10
7389;BMP180;3735;50.136;11.062;2023-09-30T13:35:37;99104.00;;;29.90
7389;BMP180;3735;50.136;11.062;2023-09-30T13:38:03;99111.00;;;29.90
7389;BMP180;3735;50.136;11.062;2023-09-30T13:40:30;99103.00;;;29.90
7389;BMP180;3735;50.136;11.062;2023-09-30T13:42:56;99098.00;;;29.60
7389;BMP180;3735;50.136;11.062;2023-09-30T13:45:23;99101.00;;;30.20
7389;BMP180;3735;50.136;11.062;2023-09-30T13:47:49;99105.00;;;30.00
7389;BMP180;3735;50.136;11.062;2023-09-30T13:50:15;99101.00;;;29.70
7389;BMP180;3735;50.136;11.062;2023-09-30T13:52:41;99092.00;;;30.20
7389;BMP180;3735;50.136;11.062;2023-09-30T13:55:08;99090.00;;;30.00
7389;BMP180;3735;50.136;11.062;2023-09-30T13:57:34;99074.00;;;29.50
7389;BMP180;3735;50.136;11.062;2023-09-30T14:00:03;99077.00;;;30.20
7389;BMP180;3735;50.136;11.062;2023-09-30T14:02:32;99083.00;;;30.80
7389;BMP180;3735;50.136;11.062;2023-09-30T14:04:58;99077.00;;;29.90
7389;BMP180;3735;50.136;11.062;2023-09-30T14:07:24;99083.00;;;30.70
7389;BMP180;3735;50.136;11.062;2023-09-30T14:09:49;99087.00;;;29.70
7389;BMP180;3735;50.136;11.062;2023-09-30T14:12:18;99088.00;;;29.90
7389;BMP180;3735;50.136;11.062;2023-09-30T14:14:43;99089.00;;;29.20
7389;BMP180;3735;50.136;11.062;2023-09-30T14:17:09;99094.00;;;29.30
7389;BMP180;3735;50.136;11.062;2023-09-30T14:19:40;99096.00;;;29.30
7389;BMP180;3735;50.136;11.062;2023-09-30T14:22:06;99096.00;;;29.30
7389;BMP180;3735;50.136;11.062;2023-09-30T14:24:35;99091.00;;;29.30
7389;BMP180;3735;50.136;11.062;2023-09-30T14:27:02;99095.00;;;29.50
7389;BMP180;3735;50.136;11.062;2023-09-30T14:29:31;99098.00;;;29.10
7389;BMP180;3735;50.136;11.062;2023-09-30T14:31:58;99096.00;;;29.10
7389;BMP180;3735;50.136;11.062;2023-09-30T14:34:24;99095.00;;;28.90
7389;BMP180;3735;50.136;11.062;2023-09-30T14:36:51;99103.00;;;28.50
7389;BMP180;3735;50.136;11.062;2023-09-30T14:39:18;99094.00;;;28.10
7389;BMP180;3735;50.136;11.062;2023-09-30T14:41:45;99095.00;;;28.00
7389;BMP180;3735;50.136;11.062;2023-09-30T14:44:13;99103.00;;;28.30
7389;BMP180;3735;50.136;11.062;2023-09-30T14:46:39;99096.00;;;26.70